Terminal Aerodrome Forecast
Issued by NWS

Home | Current Version | Previous Version | Text Only | Print | Product List | Glossary On
Versions: 1 2 3 4 5 6 7 8 9 10 11 12 13 14 15 16 17
358
FTUS44 KLUB 291131
TAFCDS
TAF
KCDS 291131Z 2912/3012 12009G15KT P6SM OVC015
      TEMPO 2912/2915 4SM -TSRA BKN007CB
     FM291500 15011KT P6SM BKN030 BKN300
     FM291800 21015G25KT P6SM FEW070 SCT300=

USA.gov is the U.S. government's official web portal to all federal, state and local government web resources and services.